Emit, North Carolina
Current Conditions -  °F | °C
As of 1:53 PM on Friday 21 Nov 2014 (Local Time) from KRWI Reporting Station
Clear Clear  
Wind Chill: 43°   Ceiling: Unl
Heat Index: 48°   Visibility: 10mi
Dew Point:   Wind: 12mph
Humidity: 21%   Direction: 350°N
Pressure: 30.44"   Gusts: NA
Location:  35.7662°N, 78.206°W
Report Text: KRWI 211853Z AUTO 35010KT 10SM CLR 09/M13 A3044 RMK AO2 SLP307 T00891128
Loading
Personal Weather Stations






























Interactive Weather Map New forecast layout! Learn more

10-Day Weather Forecast

Advertisements
Track Severe Weather on mobile